createdAt,value
2019-03-12T00:00:31.115Z,1.60
2019-03-12T00:02:59.625Z,1.60
2019-03-12T00:05:28.143Z,1.50
2019-03-12T00:07:56.616Z,1.70
2019-03-12T00:10:25.136Z,1.63
2019-03-12T00:12:53.579Z,1.50
2019-03-12T00:15:22.047Z,1.27
2019-03-12T00:17:50.571Z,1.30
2019-03-12T00:20:19.033Z,1.40
2019-03-12T00:22:47.554Z,1.70
2019-03-12T00:25:15.995Z,1.27
2019-03-12T00:27:44.470Z,1.60
2019-03-12T00:30:13.745Z,1.50
2019-03-12T00:32:42.188Z,1.67
2019-03-12T00:35:11.459Z,1.37
2019-03-12T00:37:39.906Z,1.60
2019-03-12T00:40:09.496Z,1.70
2019-03-12T00:42:37.957Z,1.63
2019-03-12T00:45:10.968Z,1.57
2019-03-12T00:47:39.462Z,1.20
2019-03-12T00:50:12.461Z,1.50
2019-03-12T00:52:41.046Z,1.87
2019-03-12T00:55:10.242Z,1.40
2019-03-12T00:57:38.710Z,1.63
2019-03-12T01:00:13.078Z,1.70
2019-03-12T01:02:41.522Z,2.17
2019-03-12T01:05:10.206Z,1.80
2019-03-12T01:07:38.722Z,1.83
2019-03-12T01:10:10.362Z,1.67
2019-03-12T01:12:38.510Z,1.73
2019-03-12T01:15:09.499Z,1.60
2019-03-12T01:17:38.391Z,2.20
2019-03-12T01:20:09.941Z,1.70
2019-03-12T01:22:38.462Z,1.53
2019-03-12T01:25:09.277Z,1.37
2019-03-12T01:27:37.722Z,1.90
2019-03-12T01:30:09.578Z,1.97
2019-03-12T01:32:38.062Z,2.03
2019-03-12T01:35:07.761Z,1.70
2019-03-12T01:37:36.343Z,2.07
2019-03-12T01:40:07.502Z,1.70
2019-03-12T01:42:35.942Z,1.67
2019-03-12T01:45:05.123Z,1.63
2019-03-12T01:47:33.595Z,1.73
2019-03-12T01:50:03.977Z,2.00
2019-03-12T01:52:32.423Z,1.90
2019-03-12T01:55:01.062Z,2.00
2019-03-12T01:57:29.506Z,2.13
2019-03-12T01:59:57.954Z,2.07
2019-03-12T02:02:26.418Z,1.67
2019-03-12T02:04:54.871Z,1.73
2019-03-12T02:07:23.415Z,1.70
2019-03-12T02:09:52.232Z,2.10
2019-03-12T02:12:20.669Z,1.90
2019-03-12T02:14:49.116Z,2.20
2019-03-12T02:17:17.594Z,2.13
2019-03-12T02:19:46.042Z,2.07
2019-03-12T02:22:14.490Z,1.90
2019-03-12T02:24:52.236Z,1.77
2019-03-12T02:27:13.418Z,1.60
2019-03-12T02:29:41.865Z,1.60
2019-03-12T02:32:10.351Z,1.90
2019-03-12T02:34:39.151Z,1.93
2019-03-12T02:37:07.710Z,1.90
2019-03-12T02:39:36.539Z,1.70
2019-03-12T02:42:05.051Z,1.70
2019-03-12T02:44:33.499Z,1.90
2019-03-12T02:47:02.033Z,2.00
2019-03-12T02:49:30.663Z,1.77
2019-03-12T02:51:59.237Z,1.93
2019-03-12T02:54:27.949Z,1.70
2019-03-12T02:56:56.498Z,2.10
2019-03-12T02:59:25.051Z,1.73
2019-03-12T03:01:53.712Z,1.57
2019-03-12T03:04:22.262Z,2.10
2019-03-12T03:06:52.491Z,1.83
2019-03-12T03:09:21.597Z,2.20
2019-03-12T03:11:51.324Z,1.77
2019-03-12T03:14:31.938Z,1.80
2019-03-12T03:17:00.637Z,1.60
2019-03-12T03:19:29.326Z,1.70
2019-03-12T03:21:58.369Z,1.53
2019-03-12T03:24:26.994Z,1.67
2019-03-12T03:26:55.547Z,1.90
2019-03-12T03:29:24.137Z,1.80
2019-03-12T03:31:52.779Z,2.07
2019-03-12T03:34:27.296Z,1.67
2019-03-12T03:36:51.720Z,1.70
2019-03-12T03:39:20.339Z,1.90
2019-03-12T03:41:48.967Z,1.90
2019-03-12T03:44:17.748Z,2.03
2019-03-12T03:46:46.305Z,1.63
2019-03-12T03:49:14.864Z,1.63
2019-03-12T03:51:43.718Z,1.90
2019-03-12T03:54:12.331Z,1.70
2019-03-12T03:56:40.962Z,1.93
2019-03-12T03:59:10.102Z,1.67
2019-03-12T04:01:38.666Z,2.03
2019-03-12T04:04:07.296Z,2.07
2019-03-12T04:06:36.021Z,2.20
2019-03-12T04:09:05.620Z,2.27
2019-03-12T04:11:34.174Z,1.70
2019-03-12T04:14:03.022Z,1.97
2019-03-12T04:16:31.576Z,1.93
2019-03-12T04:19:00.203Z,2.10
2019-03-12T04:21:29.016Z,2.03
2019-03-12T04:23:57.573Z,2.10
2019-03-12T04:26:26.147Z,1.60
2019-03-12T04:28:54.733Z,2.10
2019-03-12T04:31:23.358Z,1.83
2019-03-12T04:34:01.324Z,2.17
2019-03-12T04:36:29.952Z,1.73
2019-03-12T04:38:58.506Z,1.70
2019-03-12T04:41:27.265Z,1.83
2019-03-12T04:43:55.890Z,1.80
2019-03-12T04:46:24.446Z,2.00
2019-03-12T04:48:53.035Z,1.83
2019-03-12T04:51:21.582Z,1.57
2019-03-12T04:53:50.222Z,1.77
2019-03-12T04:56:18.894Z,1.87
2019-03-12T04:58:47.505Z,1.63
2019-03-12T05:01:16.066Z,1.97
2019-03-12T05:03:44.885Z,1.70
2019-03-12T05:06:13.581Z,2.40
2019-03-12T05:08:42.141Z,2.23
2019-03-12T05:11:10.904Z,1.60
2019-03-12T05:13:39.591Z,1.80
2019-03-12T05:16:08.141Z,2.00
2019-03-12T05:18:36.742Z,2.10
2019-03-12T05:21:05.482Z,2.13
2019-03-12T05:23:34.041Z,2.30
2019-03-12T05:26:02.882Z,2.40
2019-03-12T05:28:31.433Z,2.50
2019-03-12T05:30:59.998Z,2.17
2019-03-12T05:33:28.764Z,2.80
2019-03-12T05:35:57.401Z,2.80
2019-03-12T05:38:25.959Z,2.47
2019-03-12T05:40:54.558Z,3.07
2019-03-12T05:43:23.132Z,2.20
2019-03-12T05:45:51.760Z,2.70
2019-03-12T05:48:20.429Z,2.97
2019-03-12T05:50:49.138Z,2.97
2019-03-12T05:53:17.830Z,2.97
2019-03-12T05:55:46.430Z,3.20
2019-03-12T05:58:15.046Z,2.80
2019-03-12T06:00:43.618Z,2.60
2019-03-12T06:03:12.279Z,3.10
2019-03-12T06:05:40.839Z,2.77
2019-03-12T06:08:09.461Z,2.93
2019-03-12T06:10:38.041Z,2.33
2019-03-12T06:13:06.602Z,2.47
2019-03-12T06:15:35.164Z,2.20
2019-03-12T06:18:03.759Z,2.33
2019-03-12T06:20:32.602Z,2.80
2019-03-12T06:23:01.098Z,2.60
2019-03-12T06:25:29.691Z,2.40
2019-03-12T06:27:58.317Z,3.10
2019-03-12T06:30:28.450Z,2.77
2019-03-12T06:33:07.745Z,3.03
2019-03-12T06:35:54.661Z,2.50
2019-03-12T06:38:41.694Z,2.87
2019-03-12T06:41:23.680Z,2.70
2019-03-12T06:43:56.378Z,2.47
2019-03-12T06:46:35.053Z,2.93
2019-03-12T06:49:14.239Z,2.80
2019-03-12T06:51:44.437Z,2.33
2019-03-12T06:54:14.706Z,2.50
2019-03-12T06:56:44.931Z,2.20
2019-03-12T06:59:15.121Z,2.57
2019-03-12T07:01:51.688Z,2.53
2019-03-12T07:04:24.623Z,2.47
2019-03-12T07:07:06.937Z,2.23
2019-03-12T07:09:44.673Z,2.33
2019-03-12T07:12:14.906Z,2.10
2019-03-12T07:14:48.114Z,2.00
2019-03-12T07:17:18.302Z,2.10
2019-03-12T07:20:03.562Z,1.70
2019-03-12T07:22:33.755Z,1.80
2019-03-12T07:25:06.496Z,2.50
2019-03-12T07:27:54.842Z,1.63
2019-03-12T07:30:41.581Z,1.60
2019-03-12T07:33:11.886Z,2.10
2019-03-12T07:35:45.154Z,1.90
2019-03-12T07:38:21.697Z,1.90
2019-03-12T07:40:57.873Z,2.07
2019-03-12T07:43:46.190Z,2.17
2019-03-12T07:46:22.401Z,1.90
2019-03-12T07:49:07.928Z,1.70
2019-03-12T07:51:38.121Z,1.53
2019-03-12T07:54:24.793Z,1.87
2019-03-12T07:57:01.233Z,1.70
2019-03-12T07:59:31.465Z,1.80
2019-03-12T08:02:07.437Z,1.90
2019-03-12T08:04:53.560Z,2.03
2019-03-12T08:07:23.749Z,1.80
2019-03-12T08:09:56.774Z,2.03
2019-03-12T08:12:29.674Z,2.10
2019-03-12T08:15:23.202Z,1.67
2019-03-12T08:18:05.429Z,2.37
2019-03-12T08:20:35.694Z,1.80
2019-03-12T08:23:18.261Z,1.60
2019-03-12T08:26:00.551Z,1.80
2019-03-12T08:28:36.751Z,1.57
2019-03-12T08:31:07.029Z,1.80
2019-03-12T08:33:55.958Z,1.97
2019-03-12T08:36:35.037Z,1.87
2019-03-12T08:39:11.266Z,1.83
2019-03-12T08:41:56.535Z,1.87
2019-03-12T08:44:43.129Z,1.63
2019-03-12T08:47:13.329Z,2.00
2019-03-12T08:49:58.592Z,1.63
2019-03-12T08:52:28.854Z,1.93
2019-03-12T08:55:14.154Z,1.60
2019-03-12T08:57:47.111Z,1.40
2019-03-12T09:00:20.521Z,2.07
2019-03-12T09:02:59.994Z,1.60
2019-03-12T09:05:39.353Z,1.77
2019-03-12T09:08:27.683Z,1.57
2019-03-12T09:11:00.874Z,1.43
2019-03-12T09:13:52.348Z,1.70
2019-03-12T09:16:39.632Z,1.50
2019-03-12T09:19:12.629Z,1.60
2019-03-12T09:21:59.406Z,1.37
2019-03-12T09:24:45.869Z,1.50
2019-03-12T09:27:31.644Z,1.50
2019-03-12T09:30:01.854Z,1.77
2019-03-12T09:32:34.538Z,1.63
2019-03-12T09:35:08.006Z,1.40
2019-03-12T09:37:44.154Z,1.40
2019-03-12T09:40:14.955Z,1.50
2019-03-12T09:43:00.299Z,2.47
2019-03-12T09:45:30.606Z,1.50
2019-03-12T09:48:00.805Z,1.60
2019-03-12T09:50:49.329Z,1.30
2019-03-12T09:53:25.332Z,2.33
2019-03-12T09:55:56.150Z,1.87
2019-03-12T09:58:31.939Z,1.70
2019-03-12T10:01:02.333Z,1.67
2019-03-12T10:03:32.709Z,1.23
2019-03-12T10:06:05.753Z,1.67
2019-03-12T10:08:36.077Z,1.60
2019-03-12T10:11:22.582Z,1.93
2019-03-12T10:14:09.779Z,2.10
2019-03-12T10:16:39.979Z,1.63
2019-03-12T10:19:27.154Z,1.70
2019-03-12T10:22:03.353Z,1.93
2019-03-12T10:24:48.675Z,1.50
2019-03-12T10:27:21.450Z,2.03
2019-03-12T10:29:54.462Z,2.27
2019-03-12T10:32:40.978Z,1.70
2019-03-12T10:35:14.510Z,1.90
2019-03-12T10:37:47.453Z,1.40
2019-03-12T10:40:23.490Z,1.73
2019-03-12T10:42:58.783Z,1.23
2019-03-12T10:45:29.012Z,1.47
2019-03-12T10:47:59.347Z,1.53
2019-03-12T10:50:27.973Z,1.57
2019-03-12T10:52:56.645Z,1.40
2019-03-12T10:55:25.280Z,1.67
2019-03-12T10:57:53.839Z,1.87
2019-03-12T11:00:22.634Z,1.40
2019-03-12T11:02:51.253Z,1.70
2019-03-12T11:05:20.154Z,1.40
2019-03-12T11:07:48.832Z,1.67
2019-03-12T11:10:19.342Z,1.80
2019-03-12T11:12:48.268Z,1.30
2019-03-12T11:15:17.390Z,1.83
2019-03-12T11:17:49.831Z,1.70
2019-03-12T11:20:18.907Z,1.40
2019-03-12T11:22:47.576Z,1.40
2019-03-12T11:25:26.392Z,1.60
2019-03-12T11:27:47.278Z,1.57
2019-03-12T11:30:18.193Z,1.53
2019-03-12T11:32:46.893Z,1.77
2019-03-12T11:35:15.690Z,2.17
2019-03-12T11:37:44.355Z,1.77
2019-03-12T11:40:18.462Z,1.60
2019-03-12T11:42:47.241Z,1.50
2019-03-12T11:45:18.995Z,1.90
2019-03-12T11:47:46.349Z,1.80
2019-03-12T11:50:23.330Z,1.70
2019-03-12T11:52:56.064Z,1.50
2019-03-12T11:55:22.414Z,1.80
2019-03-12T11:57:51.174Z,1.10
2019-03-12T12:00:27.929Z,1.67
2019-03-12T12:03:00.194Z,1.70
2019-03-12T12:05:27.699Z,1.43
2019-03-12T12:07:56.368Z,1.90
2019-03-12T12:10:25.278Z,1.53
2019-03-12T12:12:53.915Z,1.40
2019-03-12T12:15:22.713Z,1.70
2019-03-12T12:17:51.644Z,1.70
2019-03-12T12:20:41.003Z,1.60
2019-03-12T12:23:09.754Z,1.30
2019-03-12T12:25:38.453Z,1.30
2019-03-12T12:28:07.149Z,1.07
2019-03-12T12:30:36.256Z,1.80
2019-03-12T12:33:05.171Z,1.50
2019-03-12T12:35:33.750Z,1.40
2019-03-12T12:38:02.353Z,1.87
2019-03-12T12:40:30.905Z,1.40
2019-03-12T12:42:59.547Z,1.30
2019-03-12T12:45:35.910Z,1.60
2019-03-12T12:48:04.654Z,1.60
2019-03-12T12:50:33.457Z,1.60
2019-03-12T12:53:02.625Z,1.80
2019-03-12T12:55:31.255Z,1.60
2019-03-12T12:57:59.894Z,1.70
2019-03-12T13:00:31.791Z,1.37
2019-03-12T13:03:00.489Z,1.73
2019-03-12T13:05:29.300Z,1.60
2019-03-12T13:07:57.950Z,1.67
2019-03-12T13:10:34.337Z,1.40
2019-03-12T13:13:03.493Z,1.87
2019-03-12T13:15:32.106Z,1.47
2019-03-12T13:18:00.739Z,1.70
2019-03-12T13:20:29.465Z,1.70
2019-03-12T13:22:58.034Z,1.57
2019-03-12T13:25:26.589Z,1.60
2019-03-12T13:27:55.475Z,1.37
2019-03-12T13:30:25.284Z,1.60
2019-03-12T13:32:53.976Z,1.37
2019-03-12T13:35:22.914Z,1.70
2019-03-12T13:37:51.619Z,1.37
2019-03-12T13:40:23.424Z,1.30
2019-03-12T13:42:52.468Z,1.30
2019-03-12T13:45:29.322Z,1.10
2019-03-12T13:47:58.225Z,1.33
2019-03-12T13:50:27.242Z,1.20
2019-03-12T13:52:55.799Z,1.90
2019-03-12T13:55:24.550Z,1.20
2019-03-12T13:57:53.162Z,1.40
2019-03-12T14:00:23.251Z,0.97
2019-03-12T14:02:52.642Z,1.07
2019-03-12T14:05:21.462Z,1.37
2019-03-12T14:07:50.168Z,1.30
2019-03-12T14:10:24.656Z,1.53
2019-03-12T14:12:53.958Z,1.07
2019-03-12T14:15:25.596Z,1.90
2019-03-12T14:17:54.328Z,1.90
2019-03-12T14:20:51.522Z,1.70
2019-03-12T14:23:35.134Z,1.30
2019-03-12T14:26:03.941Z,1.33
2019-03-12T14:28:32.576Z,0.97
2019-03-12T14:31:01.402Z,0.90
2019-03-12T14:33:30.205Z,1.00
2019-03-12T14:35:58.898Z,1.17
2019-03-12T14:38:27.657Z,1.20
2019-03-12T14:40:56.350Z,0.60
2019-03-12T14:43:25.050Z,1.00
2019-03-12T14:45:54.205Z,1.03
2019-03-12T14:48:39.886Z,0.80
2019-03-12T14:51:28.147Z,0.90
2019-03-12T14:54:02.492Z,0.67
2019-03-12T14:56:32.094Z,0.90
2019-03-12T14:59:00.848Z,0.77
2019-03-12T15:01:29.465Z,1.00
2019-03-12T15:03:58.365Z,0.87
2019-03-12T15:06:27.296Z,0.93
2019-03-12T15:08:55.852Z,1.10
2019-03-12T15:11:24.513Z,0.90
2019-03-12T15:13:53.436Z,0.93
2019-03-12T15:16:21.976Z,1.30
2019-03-12T15:18:52.030Z,1.20
2019-03-12T15:21:21.038Z,1.20
2019-03-12T15:23:49.670Z,1.00
2019-03-12T15:26:18.298Z,1.20
2019-03-12T15:28:46.967Z,1.20
2019-03-12T15:31:15.661Z,1.20
2019-03-12T15:33:44.222Z,1.13
2019-03-12T15:36:12.888Z,1.10
2019-03-12T15:38:41.574Z,0.90
2019-03-12T15:41:10.281Z,2.33
2019-03-12T15:43:39.123Z,1.10
2019-03-12T15:46:07.685Z,1.20
2019-03-12T15:48:36.310Z,1.07
2019-03-12T15:51:05.605Z,1.13
2019-03-12T15:53:34.241Z,1.40
2019-03-12T15:56:02.801Z,1.27
2019-03-12T15:58:31.385Z,1.00
2019-03-12T16:01:02.517Z,2.67
2019-03-12T16:03:30.286Z,1.73
2019-03-12T16:05:58.960Z,1.30
2019-03-12T16:08:27.583Z,1.30
2019-03-12T16:10:58.375Z,1.27
2019-03-12T16:13:26.453Z,1.20
2019-03-12T16:15:55.150Z,1.03
2019-03-12T16:18:23.777Z,1.10
2019-03-12T16:20:52.611Z,1.10
2019-03-12T16:23:21.238Z,1.30
2019-03-12T16:25:49.861Z,1.03
2019-03-12T16:28:18.670Z,1.83
2019-03-12T16:30:47.293Z,1.17
2019-03-12T16:33:15.849Z,1.10
2019-03-12T16:35:44.771Z,1.30
2019-03-12T16:38:13.411Z,1.53
2019-03-12T16:40:42.109Z,1.10
2019-03-12T16:43:11.381Z,1.60
2019-03-12T16:45:39.951Z,1.67
2019-03-12T16:48:08.501Z,1.37
2019-03-12T16:50:37.167Z,1.50
2019-03-12T16:53:05.804Z,1.60
2019-03-12T16:55:34.446Z,1.90
2019-03-12T16:58:03.475Z,1.30
2019-03-12T17:00:32.546Z,1.60
2019-03-12T17:03:01.107Z,1.40
2019-03-12T17:05:29.871Z,1.17
2019-03-12T17:07:58.567Z,1.40
2019-03-12T17:10:27.266Z,1.30
2019-03-12T17:12:55.997Z,1.20
2019-03-12T17:15:26.759Z,1.30
2019-03-12T17:17:55.454Z,1.40
2019-03-12T17:20:24.309Z,1.50
2019-03-12T17:22:52.932Z,1.20
2019-03-12T17:25:21.665Z,1.60
2019-03-12T17:27:51.884Z,1.80
2019-03-12T17:30:24.742Z,2.20
2019-03-12T17:32:53.435Z,1.67
2019-03-12T17:35:24.937Z,1.63
2019-03-12T17:37:53.554Z,1.60
2019-03-12T17:40:22.928Z,1.60
2019-03-12T17:42:51.554Z,2.00
2019-03-12T17:45:20.349Z,1.57
2019-03-12T17:47:49.046Z,1.30
2019-03-12T17:50:17.903Z,1.40
2019-03-12T17:52:46.459Z,1.83
2019-03-12T17:55:15.367Z,3.30
2019-03-12T17:57:44.190Z,1.60
2019-03-12T18:00:21.816Z,1.50
2019-03-12T18:02:50.650Z,2.10
2019-03-12T18:05:20.987Z,1.57
2019-03-12T18:07:49.693Z,1.50
2019-03-12T18:10:19.722Z,1.40
2019-03-12T18:12:48.430Z,1.60
2019-03-12T18:15:19.925Z,1.40
2019-03-12T18:17:49.330Z,1.40
2019-03-12T18:20:22.549Z,1.60
2019-03-12T18:22:51.345Z,1.57
2019-03-12T18:25:31.438Z,1.60
2019-03-12T18:28:00.129Z,1.60
2019-03-12T18:30:28.673Z,1.70
2019-03-12T18:32:57.327Z,1.80
2019-03-12T18:35:26.073Z,1.73
2019-03-12T18:37:54.775Z,1.57
2019-03-12T18:40:24.798Z,1.70
2019-03-12T18:42:53.354Z,2.13
2019-03-12T18:45:39.169Z,1.90
2019-03-12T18:48:07.791Z,2.23
2019-03-12T18:50:36.489Z,1.90
2019-03-12T18:53:05.330Z,1.70
2019-03-12T18:55:38.455Z,1.93
2019-03-12T18:58:08.134Z,1.70
2019-03-12T19:00:38.573Z,1.80
2019-03-12T19:03:07.196Z,2.83
2019-03-12T19:05:35.911Z,3.10
2019-03-12T19:08:05.286Z,2.30
2019-03-12T19:10:33.976Z,2.63
2019-03-12T19:13:02.609Z,2.30
2019-03-12T19:15:31.451Z,2.37
2019-03-12T19:18:00.091Z,2.10
2019-03-12T19:20:28.785Z,1.57
2019-03-12T19:22:57.885Z,1.93
2019-03-12T19:25:43.757Z,1.83
2019-03-12T19:28:12.975Z,1.77
2019-03-12T19:30:41.738Z,1.63
2019-03-12T19:33:12.112Z,1.87
2019-03-12T19:35:40.781Z,1.77
2019-03-12T19:38:09.677Z,1.80
2019-03-12T19:40:41.386Z,1.30
2019-03-12T19:43:10.316Z,1.43
2019-03-12T19:45:39.016Z,1.80
2019-03-12T19:48:07.817Z,1.47
2019-03-12T19:50:36.930Z,1.57
2019-03-12T19:53:05.829Z,1.80
2019-03-12T19:55:52.345Z,1.27
2019-03-12T19:58:21.097Z,1.40
2019-03-12T20:00:50.074Z,1.50
2019-03-12T20:03:19.049Z,1.50
2019-03-12T20:05:47.752Z,1.40
2019-03-12T20:08:16.449Z,1.43
2019-03-12T20:10:51.038Z,1.57
2019-03-12T20:13:48.744Z,1.40
2019-03-12T20:16:44.620Z,1.50
2019-03-12T20:19:44.813Z,1.30
2019-03-12T20:22:25.510Z,1.40
2019-03-12T20:25:11.850Z,1.43
2019-03-12T20:28:03.389Z,1.50
2019-03-12T20:31:00.723Z,1.37
2019-03-12T20:33:35.139Z,1.70
2019-03-12T20:36:40.138Z,1.50
2019-03-12T20:39:31.082Z,1.67
2019-03-12T20:42:11.756Z,1.53
2019-03-12T20:45:03.145Z,1.60
2019-03-12T20:47:40.595Z,1.50
2019-03-12T20:50:27.563Z,1.57
2019-03-12T20:53:32.698Z,1.30
2019-03-12T20:56:30.256Z,1.60
2019-03-12T20:59:30.799Z,1.50
2019-03-12T21:02:36.174Z,1.50
2019-03-12T21:05:25.986Z,1.30
2019-03-12T21:08:14.433Z,1.63
2019-03-12T21:11:19.198Z,1.57
2019-03-12T21:14:07.303Z,1.50
2019-03-12T21:16:58.981Z,1.53
2019-03-12T21:20:04.280Z,1.83
2019-03-12T21:22:52.373Z,1.50
2019-03-12T21:25:42.078Z,1.50
2019-03-12T21:28:28.476Z,1.30
2019-03-12T21:30:57.203Z,1.63
2019-03-12T21:33:25.878Z,1.43
2019-03-12T21:35:54.669Z,1.37
2019-03-12T21:38:23.404Z,1.30
2019-03-12T21:40:52.211Z,1.40
2019-03-12T21:43:20.840Z,1.43
2019-03-12T21:45:49.650Z,1.60
2019-03-12T21:48:18.350Z,1.43
2019-03-12T21:50:46.996Z,1.60
2019-03-12T21:53:16.002Z,1.97
2019-03-12T21:55:44.627Z,1.70
2019-03-12T21:58:13.390Z,1.70
2019-03-12T22:00:42.150Z,1.50
2019-03-12T22:03:10.871Z,1.70
2019-03-12T22:05:39.486Z,1.67
2019-03-12T22:08:08.310Z,1.70
2019-03-12T22:10:36.941Z,1.57
2019-03-12T22:13:05.563Z,1.60
2019-03-12T22:15:34.403Z,1.93
2019-03-12T22:18:03.033Z,1.40
2019-03-12T22:20:31.660Z,1.77
2019-03-12T22:23:10.466Z,1.80
2019-03-12T22:25:39.027Z,1.53
2019-03-12T22:28:07.649Z,1.43
2019-03-12T22:30:36.318Z,1.60
2019-03-12T22:33:05.010Z,1.53
2019-03-12T22:35:33.724Z,1.40
2019-03-12T22:38:02.641Z,1.80
2019-03-12T22:40:31.219Z,1.50
2019-03-12T22:42:59.752Z,1.40
2019-03-12T22:45:28.338Z,1.40
2019-03-12T22:47:56.909Z,1.50
2019-03-12T22:50:25.468Z,1.57
2019-03-12T22:52:54.514Z,2.27
2019-03-12T22:55:23.073Z,1.47
2019-03-12T22:57:51.640Z,1.20
2019-03-12T23:00:21.674Z,1.00
2019-03-12T23:02:50.319Z,1.20
2019-03-12T23:05:19.181Z,1.30
2019-03-12T23:07:48.037Z,1.50
2019-03-12T23:10:17.109Z,1.20
2019-03-12T23:12:45.417Z,1.20
2019-03-12T23:15:16.394Z,1.10
2019-03-12T23:17:45.290Z,1.00
2019-03-12T23:20:19.062Z,1.00
2019-03-12T23:22:47.799Z,1.10
2019-03-12T23:25:16.091Z,1.53
2019-03-12T23:27:44.729Z,1.30
2019-03-12T23:30:21.465Z,1.10
2019-03-12T23:32:50.097Z,1.03
2019-03-12T23:35:18.894Z,0.90
2019-03-12T23:37:47.789Z,0.93
2019-03-12T23:40:17.496Z,0.90
2019-03-12T23:42:46.199Z,1.20
2019-03-12T23:45:16.342Z,1.40
2019-03-12T23:47:45.825Z,1.23
2019-03-12T23:50:16.694Z,1.27
2019-03-12T23:52:45.717Z,1.50
2019-03-12T23:55:15.973Z,1.30
2019-03-12T23:57:44.669Z,1.07
